sensor_id;sensor_type;location;lat;lon;timestamp;P1;durP1;ratioP1;P2;durP2;ratioP2
54937;SDS011;52756;52.826;6.214;2024-01-27T00:01:43;16.50;;;3.42;;
54937;SDS011;52756;52.826;6.214;2024-01-27T00:04:09;14.07;;;3.30;;
54937;SDS011;52756;52.826;6.214;2024-01-27T00:06:35;16.13;;;3.47;;
54937;SDS011;52756;52.826;6.214;2024-01-27T00:09:00;14.45;;;3.28;;
54937;SDS011;52756;52.826;6.214;2024-01-27T00:11:26;15.38;;;3.17;;
54937;SDS011;52756;52.826;6.214;2024-01-27T00:13:51;22.73;;;3.65;;
54937;SDS011;52756;52.826;6.214;2024-01-27T00:16:17;13.05;;;4.28;;
54937;SDS011;52756;52.826;6.214;2024-01-27T00:18:43;17.75;;;3.60;;
54937;SDS011;52756;52.826;6.214;2024-01-27T00:21:08;17.75;;;4.93;;
54937;SDS011;52756;52.826;6.214;2024-01-27T00:23:34;15.85;;;3.10;;
54937;SDS011;52756;52.826;6.214;2024-01-27T00:26:04;14.05;;;3.53;;
54937;SDS011;52756;52.826;6.214;2024-01-27T00:28:30;17.85;;;3.38;;
54937;SDS011;52756;52.826;6.214;2024-01-27T00:30:55;14.88;;;2.97;;
54937;SDS011;52756;52.826;6.214;2024-01-27T00:33:21;13.95;;;3.38;;
54937;SDS011;52756;52.826;6.214;2024-01-27T00:35:47;16.05;;;3.05;;
54937;SDS011;52756;52.826;6.214;2024-01-27T00:38:12;23.73;;;5.25;;
54937;SDS011;52756;52.826;6.214;2024-01-27T00:40:38;16.60;;;3.20;;
54937;SDS011;52756;52.826;6.214;2024-01-27T00:43:04;15.32;;;3.10;;
54937;SDS011;52756;52.826;6.214;2024-01-27T00:45:29;19.35;;;4.03;;
54937;SDS011;52756;52.826;6.214;2024-01-27T00:47:58;16.73;;;3.33;;
54937;SDS011;52756;52.826;6.214;2024-01-27T00:50:24;18.88;;;3.63;;
54937;SDS011;52756;52.826;6.214;2024-01-27T00:52:50;13.73;;;3.55;;
54937;SDS011;52756;52.826;6.214;2024-01-27T00:55:15;17.73;;;3.28;;
54937;SDS011;52756;52.826;6.214;2024-01-27T00:57:42;20.08;;;3.97;;
54937;SDS011;52756;52.826;6.214;2024-01-27T01:00:08;20.33;;;4.00;;
54937;SDS011;52756;52.826;6.214;2024-01-27T01:02:34;18.88;;;4.68;;
54937;SDS011;52756;52.826;6.214;2024-01-27T01:05:01;20.25;;;3.90;;
54937;SDS011;52756;52.826;6.214;2024-01-27T01:07:29;17.08;;;3.50;;
54937;SDS011;52756;52.826;6.214;2024-01-27T01:09:57;20.67;;;3.88;;
54937;SDS011;52756;52.826;6.214;2024-01-27T01:12:23;24.65;;;4.88;;
54937;SDS011;52756;52.826;6.214;2024-01-27T01:14:50;13.15;;;3.40;;
54937;SDS011;52756;52.826;6.214;2024-01-27T01:17:16;18.75;;;3.72;;
54937;SDS011;52756;52.826;6.214;2024-01-27T01:19:41;16.58;;;3.58;;
54937;SDS011;52756;52.826;6.214;2024-01-27T01:22:07;9.77;;;3.20;;
54937;SDS011;52756;52.826;6.214;2024-01-27T01:24:33;12.80;;;4.00;;
54937;SDS011;52756;52.826;6.214;2024-01-27T01:26:59;16.23;;;3.78;;
54937;SDS011;52756;52.826;6.214;2024-01-27T01:29:25;15.95;;;3.72;;
54937;SDS011;52756;52.826;6.214;2024-01-27T01:31:51;17.55;;;3.75;;
54937;SDS011;52756;52.826;6.214;2024-01-27T01:34:17;19.45;;;4.10;;
54937;SDS011;52756;52.826;6.214;2024-01-27T01:36:42;14.48;;;3.30;;
54937;SDS011;52756;52.826;6.214;2024-01-27T01:39:09;12.93;;;3.60;;
54937;SDS011;52756;52.826;6.214;2024-01-27T01:41:35;12.77;;;3.65;;
54937;SDS011;52756;52.826;6.214;2024-01-27T01:44:00;13.68;;;3.58;;
54937;SDS011;52756;52.826;6.214;2024-01-27T01:46:26;14.13;;;4.07;;
54937;SDS011;52756;52.826;6.214;2024-01-27T01:48:52;18.88;;;3.80;;
54937;SDS011;52756;52.826;6.214;2024-01-27T01:51:18;15.43;;;3.60;;
54937;SDS011;52756;52.826;6.214;2024-01-27T01:53:45;17.10;;;3.95;;
54937;SDS011;52756;52.826;6.214;2024-01-27T01:56:14;14.77;;;3.63;;
54937;SDS011;52756;52.826;6.214;2024-01-27T01:58:40;14.65;;;3.72;;
54937;SDS011;52756;52.826;6.214;2024-01-27T02:01:06;15.13;;;3.40;;
54937;SDS011;52756;52.826;6.214;2024-01-27T02:03:32;15.25;;;3.70;;
54937;SDS011;52756;52.826;6.214;2024-01-27T02:05:58;13.30;;;3.38;;
54937;SDS011;52756;52.826;6.214;2024-01-27T02:08:23;20.33;;;3.72;;
54937;SDS011;52756;52.826;6.214;2024-01-27T02:10:49;12.35;;;2.92;;
54937;SDS011;52756;52.826;6.214;2024-01-27T02:13:18;14.30;;;3.15;;
54937;SDS011;52756;52.826;6.214;2024-01-27T02:15:46;15.43;;;3.08;;
54937;SDS011;52756;52.826;6.214;2024-01-27T02:18:12;9.63;;;2.33;;
54937;SDS011;52756;52.826;6.214;2024-01-27T02:20:38;11.48;;;2.42;;
54937;SDS011;52756;52.826;6.214;2024-01-27T02:23:04;15.15;;;2.92;;
54937;SDS011;52756;52.826;6.214;2024-01-27T02:25:33;15.57;;;2.78;;
54937;SDS011;52756;52.826;6.214;2024-01-27T02:27:59;14.15;;;3.08;;
54937;SDS011;52756;52.826;6.214;2024-01-27T02:30:25;10.70;;;2.88;;
54937;SDS011;52756;52.826;6.214;2024-01-27T02:32:51;9.55;;;2.50;;
54937;SDS011;52756;52.826;6.214;2024-01-27T02:35:17;10.18;;;2.58;;
54937;SDS011;52756;52.826;6.214;2024-01-27T02:37:43;13.75;;;2.90;;
54937;SDS011;52756;52.826;6.214;2024-01-27T02:40:09;10.75;;;2.60;;
54937;SDS011;52756;52.826;6.214;2024-01-27T02:42:35;17.73;;;3.90;;
54937;SDS011;52756;52.826;6.214;2024-01-27T02:45:02;14.07;;;2.70;;
54937;SDS011;52756;52.826;6.214;2024-01-27T02:47:28;14.82;;;2.95;;
54937;SDS011;52756;52.826;6.214;2024-01-27T02:49:54;16.95;;;2.90;;
54937;SDS011;52756;52.826;6.214;2024-01-27T02:52:19;14.95;;;3.25;;
54937;SDS011;52756;52.826;6.214;2024-01-27T02:54:45;18.17;;;3.28;;
54937;SDS011;52756;52.826;6.214;2024-01-27T02:57:10;13.23;;;2.53;;
54937;SDS011;52756;52.826;6.214;2024-01-27T02:59:36;10.57;;;2.80;;
54937;SDS011;52756;52.826;6.214;2024-01-27T03:02:04;14.45;;;2.90;;
54937;SDS011;52756;52.826;6.214;2024-01-27T03:04:30;17.02;;;2.70;;
54937;SDS011;52756;52.826;6.214;2024-01-27T03:06:57;10.27;;;2.92;;
54937;SDS011;52756;52.826;6.214;2024-01-27T03:09:22;15.35;;;3.05;;
54937;SDS011;52756;52.826;6.214;2024-01-27T03:11:48;9.02;;;2.88;;
54937;SDS011;52756;52.826;6.214;2024-01-27T03:14:13;18.27;;;4.40;;
54937;SDS011;52756;52.826;6.214;2024-01-27T03:16:39;10.18;;;2.50;;
54937;SDS011;52756;52.826;6.214;2024-01-27T03:19:05;16.20;;;3.13;;
54937;SDS011;52756;52.826;6.214;2024-01-27T03:21:31;11.07;;;2.35;;
54937;SDS011;52756;52.826;6.214;2024-01-27T03:23:57;13.80;;;3.30;;
54937;SDS011;52756;52.826;6.214;2024-01-27T03:26:23;12.65;;;2.25;;
54937;SDS011;52756;52.826;6.214;2024-01-27T03:28:48;12.52;;;2.70;;
54937;SDS011;52756;52.826;6.214;2024-01-27T03:31:14;14.20;;;2.70;;
54937;SDS011;52756;52.826;6.214;2024-01-27T03:33:39;10.30;;;2.70;;
54937;SDS011;52756;52.826;6.214;2024-01-27T03:36:11;24.42;;;3.90;;
54937;SDS011;52756;52.826;6.214;2024-01-27T03:38:38;12.05;;;3.15;;
54937;SDS011;52756;52.826;6.214;2024-01-27T03:41:05;17.60;;;3.50;;
54937;SDS011;52756;52.826;6.214;2024-01-27T03:43:31;13.07;;;2.67;;
54937;SDS011;52756;52.826;6.214;2024-01-27T03:45:58;15.50;;;3.20;;
54937;SDS011;52756;52.826;6.214;2024-01-27T03:48:24;15.18;;;3.28;;
54937;SDS011;52756;52.826;6.214;2024-01-27T03:50:50;16.90;;;3.03;;
54937;SDS011;52756;52.826;6.214;2024-01-27T03:53:15;17.77;;;2.80;;
54937;SDS011;52756;52.826;6.214;2024-01-27T03:55:41;11.52;;;2.50;;
54937;SDS011;52756;52.826;6.214;2024-01-27T03:58:06;22.27;;;4.15;;
54937;SDS011;52756;52.826;6.214;2024-01-27T04:00:32;19.92;;;3.63;;
54937;SDS011;52756;52.826;6.214;2024-01-27T04:03:01;10.02;;;2.78;;
54937;SDS011;52756;52.826;6.214;2024-01-27T04:05:28;11.15;;;2.88;;
54937;SDS011;52756;52.826;6.214;2024-01-27T04:07:55;14.70;;;2.80;;
54937;SDS011;52756;52.826;6.214;2024-01-27T04:10:21;14.35;;;3.22;;
54937;SDS011;52756;52.826;6.214;2024-01-27T04:12:47;14.05;;;3.33;;
54937;SDS011;52756;52.826;6.214;2024-01-27T04:15:13;13.77;;;2.72;;
54937;SDS011;52756;52.826;6.214;2024-01-27T04:17:39;14.02;;;2.42;;
54937;SDS011;52756;52.826;6.214;2024-01-27T04:20:08;13.50;;;2.72;;
54937;SDS011;52756;52.826;6.214;2024-01-27T04:22:34;17.08;;;3.13;;
54937;SDS011;52756;52.826;6.214;2024-01-27T04:25:00;18.73;;;3.17;;
54937;SDS011;52756;52.826;6.214;2024-01-27T04:27:27;18.75;;;3.70;;
54937;SDS011;52756;52.826;6.214;2024-01-27T04:29:52;14.00;;;2.75;;
54937;SDS011;52756;52.826;6.214;2024-01-27T04:32:18;19.17;;;3.47;;
54937;SDS011;52756;52.826;6.214;2024-01-27T04:34:44;15.57;;;3.42;;
54937;SDS011;52756;52.826;6.214;2024-01-27T04:37:10;12.95;;;2.97;;
54937;SDS011;52756;52.826;6.214;2024-01-27T04:39:35;12.43;;;2.75;;
54937;SDS011;52756;52.826;6.214;2024-01-27T04:42:02;12.18;;;2.70;;
54937;SDS011;52756;52.826;6.214;2024-01-27T04:44:28;15.45;;;2.80;;
54937;SDS011;52756;52.826;6.214;2024-01-27T04:46:53;16.20;;;4.05;;
54937;SDS011;52756;52.826;6.214;2024-01-27T04:49:19;17.58;;;3.40;;
54937;SDS011;52756;52.826;6.214;2024-01-27T04:51:44;13.57;;;3.03;;
54937;SDS011;52756;52.826;6.214;2024-01-27T04:54:10;15.80;;;3.20;;
54937;SDS011;52756;52.826;6.214;2024-01-27T04:56:36;14.48;;;2.65;;
54937;SDS011;52756;52.826;6.214;2024-01-27T04:59:02;9.85;;;2.40;;
54937;SDS011;52756;52.826;6.214;2024-01-27T05:01:27;10.57;;;2.53;;
54937;SDS011;52756;52.826;6.214;2024-01-27T05:03:53;18.00;;;3.22;;
54937;SDS011;52756;52.826;6.214;2024-01-27T05:06:20;18.63;;;3.20;;
54937;SDS011;52756;52.826;6.214;2024-01-27T05:08:45;12.45;;;2.63;;
54937;SDS011;52756;52.826;6.214;2024-01-27T05:11:11;15.73;;;3.28;;
54937;SDS011;52756;52.826;6.214;2024-01-27T05:13:36;13.57;;;3.35;;
54937;SDS011;52756;52.826;6.214;2024-01-27T05:16:05;14.15;;;3.08;;
54937;SDS011;52756;52.826;6.214;2024-01-27T05:18:31;13.77;;;2.92;;
54937;SDS011;52756;52.826;6.214;2024-01-27T05:20:56;17.17;;;3.22;;
54937;SDS011;52756;52.826;6.214;2024-01-27T05:23:22;12.75;;;2.65;;
54937;SDS011;52756;52.826;6.214;2024-01-27T05:25:48;14.40;;;3.80;;
54937;SDS011;52756;52.826;6.214;2024-01-27T05:28:14;15.35;;;2.97;;
54937;SDS011;52756;52.826;6.214;2024-01-27T05:30:39;13.30;;;2.47;;
54937;SDS011;52756;52.826;6.214;2024-01-27T05:33:05;11.07;;;2.28;;
54937;SDS011;52756;52.826;6.214;2024-01-27T05:35:31;15.48;;;3.75;;
54937;SDS011;52756;52.826;6.214;2024-01-27T05:37:56;17.25;;;3.05;;
54937;SDS011;52756;52.826;6.214;2024-01-27T05:40:22;15.20;;;2.88;;
54937;SDS011;52756;52.826;6.214;2024-01-27T05:42:48;11.85;;;2.70;;
54937;SDS011;52756;52.826;6.214;2024-01-27T05:45:14;13.95;;;3.42;;
54937;SDS011;52756;52.826;6.214;2024-01-27T05:47:40;11.35;;;2.50;;
54937;SDS011;52756;52.826;6.214;2024-01-27T05:50:06;20.85;;;3.90;;
54937;SDS011;52756;52.826;6.214;2024-01-27T05:52:33;19.33;;;3.55;;
54937;SDS011;52756;52.826;6.214;2024-01-27T05:54:59;11.50;;;3.30;;
54937;SDS011;52756;52.826;6.214;2024-01-27T05:57:26;12.82;;;3.83;;
54937;SDS011;52756;52.826;6.214;2024-01-27T05:59:51;17.02;;;3.47;;
54937;SDS011;52756;52.826;6.214;2024-01-27T06:02:17;15.38;;;3.17;;
54937;SDS011;52756;52.826;6.214;2024-01-27T06:04:43;11.80;;;2.90;;
54937;SDS011;52756;52.826;6.214;2024-01-27T06:07:08;14.10;;;2.78;;
54937;SDS011;52756;52.826;6.214;2024-01-27T06:09:34;17.45;;;3.45;;
54937;SDS011;52756;52.826;6.214;2024-01-27T06:12:01;9.82;;;2.60;;
54937;SDS011;52756;52.826;6.214;2024-01-27T06:14:27;15.15;;;3.33;;
54937;SDS011;52756;52.826;6.214;2024-01-27T06:16:53;15.43;;;3.22;;
54937;SDS011;52756;52.826;6.214;2024-01-27T06:19:19;15.48;;;4.07;;
54937;SDS011;52756;52.826;6.214;2024-01-27T06:21:44;13.25;;;5.28;;
54937;SDS011;52756;52.826;6.214;2024-01-27T06:24:10;19.88;;;5.78;;
54937;SDS011;52756;52.826;6.214;2024-01-27T06:26:35;15.95;;;4.45;;
54937;SDS011;52756;52.826;6.214;2024-01-27T06:29:01;12.25;;;4.53;;
54937;SDS011;52756;52.826;6.214;2024-01-27T06:31:30;15.05;;;4.43;;
54937;SDS011;52756;52.826;6.214;2024-01-27T06:33:56;12.80;;;3.90;;
54937;SDS011;52756;52.826;6.214;2024-01-27T06:36:21;12.02;;;3.50;;
54937;SDS011;52756;52.826;6.214;2024-01-27T06:38:50;13.65;;;3.85;;
54937;SDS011;52756;52.826;6.214;2024-01-27T06:41:15;14.60;;;5.18;;
54937;SDS011;52756;52.826;6.214;2024-01-27T06:43:42;12.55;;;4.70;;
54937;SDS011;52756;52.826;6.214;2024-01-27T06:46:07;14.00;;;4.05;;
54937;SDS011;52756;52.826;6.214;2024-01-27T06:48:33;17.83;;;4.57;;
54937;SDS011;52756;52.826;6.214;2024-01-27T06:50:58;11.38;;;4.78;;
54937;SDS011;52756;52.826;6.214;2024-01-27T06:53:24;9.75;;;4.25;;
54937;SDS011;52756;52.826;6.214;2024-01-27T06:55:50;15.82;;;4.28;;
54937;SDS011;52756;52.826;6.214;2024-01-27T06:58:15;12.68;;;4.75;;
54937;SDS011;52756;52.826;6.214;2024-01-27T07:00:41;14.48;;;4.60;;
54937;SDS011;52756;52.826;6.214;2024-01-27T07:03:06;19.25;;;6.63;;
54937;SDS011;52756;52.826;6.214;2024-01-27T07:05:32;17.58;;;4.90;;
54937;SDS011;52756;52.826;6.214;2024-01-27T07:08:04;16.40;;;4.90;;
54937;SDS011;52756;52.826;6.214;2024-01-27T07:10:31;15.35;;;4.90;;
54937;SDS011;52756;52.826;6.214;2024-01-27T07:12:57;10.63;;;4.88;;
54937;SDS011;52756;52.826;6.214;2024-01-27T07:15:22;15.50;;;5.35;;
54937;SDS011;52756;52.826;6.214;2024-01-27T07:17:48;13.82;;;5.07;;
54937;SDS011;52756;52.826;6.214;2024-01-27T07:20:14;14.98;;;5.35;;
54937;SDS011;52756;52.826;6.214;2024-01-27T07:22:40;12.18;;;4.80;;
54937;SDS011;52756;52.826;6.214;2024-01-27T07:25:06;13.60;;;5.50;;
54937;SDS011;52756;52.826;6.214;2024-01-27T07:27:35;18.58;;;5.35;;
54937;SDS011;52756;52.826;6.214;2024-01-27T07:30:01;15.85;;;6.07;;
54937;SDS011;52756;52.826;6.214;2024-01-27T07:32:28;15.43;;;5.90;;
54937;SDS011;52756;52.826;6.214;2024-01-27T07:34:53;11.90;;;4.80;;
54937;SDS011;52756;52.826;6.214;2024-01-27T07:37:19;18.77;;;6.60;;
54937;SDS011;52756;52.826;6.214;2024-01-27T07:39:46;17.70;;;6.25;;
54937;SDS011;52756;52.826;6.214;2024-01-27T07:42:14;17.13;;;6.00;;
54937;SDS011;52756;52.826;6.214;2024-01-27T07:44:40;14.32;;;5.72;;
54937;SDS011;52756;52.826;6.214;2024-01-27T07:47:07;11.52;;;5.13;;
54937;SDS011;52756;52.826;6.214;2024-01-27T07:49:33;15.02;;;6.18;;
54937;SDS011;52756;52.826;6.214;2024-01-27T07:51:59;16.23;;;5.68;;
54937;SDS011;52756;52.826;6.214;2024-01-27T07:54:25;14.55;;;5.88;;
54937;SDS011;52756;52.826;6.214;2024-01-27T07:56:51;16.73;;;6.43;;
54937;SDS011;52756;52.826;6.214;2024-01-27T07:59:16;19.60;;;5.90;;
54937;SDS011;52756;52.826;6.214;2024-01-27T08:01:42;19.55;;;5.90;;
54937;SDS011;52756;52.826;6.214;2024-01-27T08:04:08;15.18;;;5.60;;
54937;SDS011;52756;52.826;6.214;2024-01-27T08:06:34;18.33;;;6.05;;
54937;SDS011;52756;52.826;6.214;2024-01-27T08:09:11;16.83;;;5.78;;
54937;SDS011;52756;52.826;6.214;2024-01-27T08:11:37;15.88;;;6.20;;
54937;SDS011;52756;52.826;6.214;2024-01-27T08:14:02;18.77;;;6.80;;
54937;SDS011;52756;52.826;6.214;2024-01-27T08:16:28;17.98;;;6.90;;
54937;SDS011;52756;52.826;6.214;2024-01-27T08:18:53;18.67;;;6.60;;
54937;SDS011;52756;52.826;6.214;2024-01-27T08:21:19;15.82;;;6.30;;
54937;SDS011;52756;52.826;6.214;2024-01-27T08:23:44;18.00;;;6.70;;
54937;SDS011;52756;52.826;6.214;2024-01-27T08:26:10;16.10;;;6.43;;
54937;SDS011;52756;52.826;6.214;2024-01-27T08:28:36;16.88;;;6.03;;
54937;SDS011;52756;52.826;6.214;2024-01-27T08:31:02;17.40;;;6.78;;
54937;SDS011;52756;52.826;6.214;2024-01-27T08:33:27;14.27;;;6.25;;
54937;SDS011;52756;52.826;6.214;2024-01-27T08:35:53;13.80;;;5.57;;
54937;SDS011;52756;52.826;6.214;2024-01-27T08:38:19;15.95;;;6.45;;
54937;SDS011;52756;52.826;6.214;2024-01-27T08:40:45;18.00;;;6.53;;
54937;SDS011;52756;52.826;6.214;2024-01-27T08:43:10;18.00;;;7.63;;
54937;SDS011;52756;52.826;6.214;2024-01-27T08:45:39;17.17;;;6.95;;
54937;SDS011;52756;52.826;6.214;2024-01-27T08:48:05;19.77;;;8.73;;
54937;SDS011;52756;52.826;6.214;2024-01-27T08:50:31;16.15;;;7.32;;
54937;SDS011;52756;52.826;6.214;2024-01-27T08:52:57;18.38;;;6.60;;
54937;SDS011;52756;52.826;6.214;2024-01-27T08:55:23;14.23;;;6.07;;
54937;SDS011;52756;52.826;6.214;2024-01-27T08:57:49;15.60;;;5.85;;
54937;SDS011;52756;52.826;6.214;2024-01-27T09:00:15;14.38;;;5.90;;
54937;SDS011;52756;52.826;6.214;2024-01-27T09:02:42;19.30;;;6.53;;
54937;SDS011;52756;52.826;6.214;2024-01-27T09:05:08;13.75;;;5.72;;
54937;SDS011;52756;52.826;6.214;2024-01-27T09:07:33;14.77;;;6.03;;
54937;SDS011;52756;52.826;6.214;2024-01-27T09:10:00;18.35;;;6.47;;
54937;SDS011;52756;52.826;6.214;2024-01-27T09:12:25;21.08;;;5.70;;
54937;SDS011;52756;52.826;6.214;2024-01-27T09:14:51;11.38;;;5.90;;
54937;SDS011;52756;52.826;6.214;2024-01-27T09:17:19;16.23;;;6.57;;
54937;SDS011;52756;52.826;6.214;2024-01-27T09:19:45;16.35;;;6.35;;
54937;SDS011;52756;52.826;6.214;2024-01-27T09:22:10;15.07;;;5.88;;
54937;SDS011;52756;52.826;6.214;2024-01-27T09:24:36;15.93;;;6.63;;
54937;SDS011;52756;52.826;6.214;2024-01-27T09:27:01;13.90;;;5.70;;
54937;SDS011;52756;52.826;6.214;2024-01-27T09:29:28;15.35;;;6.05;;
54937;SDS011;52756;52.826;6.214;2024-01-27T09:31:54;15.30;;;6.15;;
54937;SDS011;52756;52.826;6.214;2024-01-27T09:34:20;16.80;;;6.40;;
54937;SDS011;52756;52.826;6.214;2024-01-27T09:36:45;14.50;;;6.47;;
54937;SDS011;52756;52.826;6.214;2024-01-27T09:39:11;17.85;;;7.13;;
54937;SDS011;52756;52.826;6.214;2024-01-27T09:41:36;14.65;;;6.40;;
54937;SDS011;52756;52.826;6.214;2024-01-27T09:44:03;13.32;;;6.45;;
54937;SDS011;52756;52.826;6.214;2024-01-27T09:46:30;15.07;;;7.32;;
54937;SDS011;52756;52.826;6.214;2024-01-27T09:48:56;17.77;;;6.80;;
54937;SDS011;52756;52.826;6.214;2024-01-27T09:51:24;15.63;;;6.65;;
54937;SDS011;52756;52.826;6.214;2024-01-27T09:53:51;17.75;;;7.28;;
54937;SDS011;52756;52.826;6.214;2024-01-27T09:56:17;16.02;;;6.43;;
54937;SDS011;52756;52.826;6.214;2024-01-27T09:58:44;13.73;;;7.07;;
54937;SDS011;52756;52.826;6.214;2024-01-27T10:01:10;13.48;;;6.30;;
54937;SDS011;52756;52.826;6.214;2024-01-27T10:03:38;18.40;;;7.25;;
54937;SDS011;52756;52.826;6.214;2024-01-27T10:06:08;14.73;;;6.10;;
54937;SDS011;52756;52.826;6.214;2024-01-27T10:08:34;19.83;;;7.57;;
54937;SDS011;52756;52.826;6.214;2024-01-27T10:11:00;15.95;;;7.00;;
54937;SDS011;52756;52.826;6.214;2024-01-27T10:13:35;17.02;;;6.63;;
54937;SDS011;52756;52.826;6.214;2024-01-27T10:16:01;16.27;;;6.15;;
54937;SDS011;52756;52.826;6.214;2024-01-27T10:18:31;15.07;;;6.85;;
54937;SDS011;52756;52.826;6.214;2024-01-27T10:20:58;14.73;;;6.82;;
54937;SDS011;52756;52.826;6.214;2024-01-27T10:23:24;17.40;;;6.53;;
54937;SDS011;52756;52.826;6.214;2024-01-27T10:25:50;17.38;;;6.68;;
54937;SDS011;52756;52.826;6.214;2024-01-27T10:28:16;11.65;;;6.28;;
54937;SDS011;52756;52.826;6.214;2024-01-27T10:30:42;19.52;;;6.40;;
54937;SDS011;52756;52.826;6.214;2024-01-27T10:33:08;16.13;;;7.15;;
54937;SDS011;52756;52.826;6.214;2024-01-27T10:35:35;17.98;;;5.97;;
54937;SDS011;52756;52.826;6.214;2024-01-27T10:38:01;18.83;;;6.78;;
54937;SDS011;52756;52.826;6.214;2024-01-27T10:40:27;14.35;;;6.90;;
54937;SDS011;52756;52.826;6.214;2024-01-27T10:43:00;18.08;;;7.32;;
54937;SDS011;52756;52.826;6.214;2024-01-27T10:45:29;17.27;;;6.60;;
54937;SDS011;52756;52.826;6.214;2024-01-27T10:48:01;15.63;;;6.47;;
54937;SDS011;52756;52.826;6.214;2024-01-27T10:50:28;15.30;;;6.13;;
54937;SDS011;52756;52.826;6.214;2024-01-27T10:52:54;16.08;;;6.70;;
54937;SDS011;52756;52.826;6.214;2024-01-27T10:55:26;19.13;;;7.88;;
54937;SDS011;52756;52.826;6.214;2024-01-27T10:57:52;18.85;;;6.82;;
54937;SDS011;52756;52.826;6.214;2024-01-27T11:00:20;17.58;;;6.78;;
54937;SDS011;52756;52.826;6.214;2024-01-27T11:02:47;13.38;;;5.85;;
54937;SDS011;52756;52.826;6.214;2024-01-27T11:05:18;18.90;;;6.82;;
54937;SDS011;52756;52.826;6.214;2024-01-27T11:07:45;17.25;;;6.60;;
54937;SDS011;52756;52.826;6.214;2024-01-27T11:10:12;14.88;;;5.90;;
54937;SDS011;52756;52.826;6.214;2024-01-27T11:12:37;19.70;;;6.93;;
54937;SDS011;52756;52.826;6.214;2024-01-27T11:15:04;15.77;;;5.90;;
54937;SDS011;52756;52.826;6.214;2024-01-27T11:17:40;18.35;;;6.35;;
54937;SDS011;52756;52.826;6.214;2024-01-27T11:20:09;20.27;;;6.88;;
54937;SDS011;52756;52.826;6.214;2024-01-27T11:22:41;17.25;;;6.05;;
54937;SDS011;52756;52.826;6.214;2024-01-27T11:27:38;20.83;;;8.68;;
54937;SDS011;52756;52.826;6.214;2024-01-27T11:30:05;18.25;;;7.00;;
54937;SDS011;52756;52.826;6.214;2024-01-27T11:32:48;16.02;;;6.25;;
54937;SDS011;52756;52.826;6.214;2024-01-27T11:35:14;17.10;;;6.50;;
54937;SDS011;52756;52.826;6.214;2024-01-27T11:37:42;19.50;;;5.72;;
54937;SDS011;52756;52.826;6.214;2024-01-27T11:40:08;12.68;;;5.72;;
54937;SDS011;52756;52.826;6.214;2024-01-27T11:42:34;19.00;;;6.63;;
54937;SDS011;52756;52.826;6.214;2024-01-27T11:45:00;15.73;;;5.03;;
54937;SDS011;52756;52.826;6.214;2024-01-27T11:47:26;18.20;;;5.47;;
54937;SDS011;52756;52.826;6.214;2024-01-27T11:49:53;14.43;;;4.93;;
54937;SDS011;52756;52.826;6.214;2024-01-27T11:52:20;13.00;;;4.82;;
54937;SDS011;52756;52.826;6.214;2024-01-27T11:54:53;17.27;;;5.80;;
54937;SDS011;52756;52.826;6.214;2024-01-27T11:57:23;16.20;;;5.20;;
54937;SDS011;52756;52.826;6.214;2024-01-27T11:59:49;20.88;;;6.20;;
54937;SDS011;52756;52.826;6.214;2024-01-27T12:02:15;17.40;;;5.20;;
54937;SDS011;52756;52.826;6.214;2024-01-27T12:04:42;16.77;;;5.40;;
54937;SDS011;52756;52.826;6.214;2024-01-27T12:07:08;18.85;;;5.82;;
54937;SDS011;52756;52.826;6.214;2024-01-27T12:09:35;19.60;;;6.70;;
54937;SDS011;52756;52.826;6.214;2024-01-27T12:12:03;18.73;;;5.75;;
54937;SDS011;52756;52.826;6.214;2024-01-27T12:14:39;12.57;;;5.10;;
54937;SDS011;52756;52.826;6.214;2024-01-27T12:17:12;20.90;;;7.35;;
54937;SDS011;52756;52.826;6.214;2024-01-27T12:19:38;21.73;;;6.60;;
54937;SDS011;52756;52.826;6.214;2024-01-27T12:22:04;15.18;;;5.45;;
54937;SDS011;52756;52.826;6.214;2024-01-27T12:24:45;15.82;;;5.93;;
54937;SDS011;52756;52.826;6.214;2024-01-27T12:27:11;15.63;;;5.88;;
54937;SDS011;52756;52.826;6.214;2024-01-27T12:29:40;16.55;;;4.85;;
54937;SDS011;52756;52.826;6.214;2024-01-27T12:32:06;18.67;;;5.85;;
54937;SDS011;52756;52.826;6.214;2024-01-27T12:34:32;17.52;;;5.68;;
54937;SDS011;52756;52.826;6.214;2024-01-27T12:36:58;23.70;;;5.60;;
54937;SDS011;52756;52.826;6.214;2024-01-27T12:39:23;14.73;;;5.50;;
54937;SDS011;52756;52.826;6.214;2024-01-27T12:41:51;17.45;;;6.00;;
54937;SDS011;52756;52.826;6.214;2024-01-27T12:44:17;23.52;;;5.65;;
54937;SDS011;52756;52.826;6.214;2024-01-27T12:46:42;15.50;;;4.93;;
54937;SDS011;52756;52.826;6.214;2024-01-27T12:49:08;12.32;;;4.90;;
54937;SDS011;52756;52.826;6.214;2024-01-27T12:51:34;13.43;;;5.32;;
54937;SDS011;52756;52.826;6.214;2024-01-27T12:54:00;12.95;;;5.13;;
54937;SDS011;52756;52.826;6.214;2024-01-27T12:56:25;19.05;;;4.97;;
54937;SDS011;52756;52.826;6.214;2024-01-27T12:58:51;12.27;;;5.05;;
54937;SDS011;52756;52.826;6.214;2024-01-27T13:01:17;24.45;;;6.53;;
54937;SDS011;52756;52.826;6.214;2024-01-27T13:03:42;16.45;;;5.47;;
54937;SDS011;52756;52.826;6.214;2024-01-27T13:06:08;13.98;;;4.55;;
54937;SDS011;52756;52.826;6.214;2024-01-27T13:08:34;19.83;;;4.97;;
54937;SDS011;52756;52.826;6.214;2024-01-27T13:10:59;17.75;;;5.68;;
54937;SDS011;52756;52.826;6.214;2024-01-27T13:13:25;18.98;;;6.03;;
54937;SDS011;52756;52.826;6.214;2024-01-27T13:15:51;15.63;;;5.03;;
54937;SDS011;52756;52.826;6.214;2024-01-27T13:18:16;16.88;;;4.80;;
54937;SDS011;52756;52.826;6.214;2024-01-27T13:20:42;16.20;;;5.15;;
54937;SDS011;52756;52.826;6.214;2024-01-27T13:23:08;14.20;;;4.35;;
54937;SDS011;52756;52.826;6.214;2024-01-27T13:25:33;13.48;;;4.30;;
54937;SDS011;52756;52.826;6.214;2024-01-27T13:27:59;20.17;;;4.88;;
54937;SDS011;52756;52.826;6.214;2024-01-27T13:30:25;13.05;;;4.22;;
54937;SDS011;52756;52.826;6.214;2024-01-27T13:32:51;16.42;;;5.10;;
54937;SDS011;52756;52.826;6.214;2024-01-27T13:35:17;21.80;;;5.90;;
54937;SDS011;52756;52.826;6.214;2024-01-27T13:37:43;18.17;;;5.18;;
54937;SDS011;52756;52.826;6.214;2024-01-27T13:40:08;13.95;;;4.40;;
54937;SDS011;52756;52.826;6.214;2024-01-27T13:42:35;18.92;;;5.03;;
54937;SDS011;52756;52.826;6.214;2024-01-27T13:45:02;17.05;;;5.10;;
54937;SDS011;52756;52.826;6.214;2024-01-27T13:47:28;17.65;;;4.70;;
54937;SDS011;52756;52.826;6.214;2024-01-27T13:49:55;19.63;;;5.28;;
54937;SDS011;52756;52.826;6.214;2024-01-27T13:52:20;12.60;;;4.95;;
54937;SDS011;52756;52.826;6.214;2024-01-27T13:54:46;16.45;;;5.00;;
54937;SDS011;52756;52.826;6.214;2024-01-27T13:57:11;14.02;;;4.53;;
54937;SDS011;52756;52.826;6.214;2024-01-27T13:59:37;18.05;;;5.50;;
54937;SDS011;52756;52.826;6.214;2024-01-27T14:02:03;16.83;;;4.63;;
54937;SDS011;52756;52.826;6.214;2024-01-27T14:04:29;11.95;;;4.95;;
54937;SDS011;52756;52.826;6.214;2024-01-27T14:06:55;18.77;;;5.00;;
54937;SDS011;52756;52.826;6.214;2024-01-27T14:09:27;18.30;;;4.93;;
54937;SDS011;52756;52.826;6.214;2024-01-27T14:11:53;15.88;;;5.10;;
54937;SDS011;52756;52.826;6.214;2024-01-27T14:14:19;19.02;;;5.22;;
54937;SDS011;52756;52.826;6.214;2024-01-27T14:16:46;15.23;;;5.22;;
54937;SDS011;52756;52.826;6.214;2024-01-27T14:19:11;20.23;;;5.18;;
54937;SDS011;52756;52.826;6.214;2024-01-27T14:21:37;15.40;;;5.88;;
54937;SDS011;52756;52.826;6.214;2024-01-27T14:24:05;17.50;;;6.03;;
54937;SDS011;52756;52.826;6.214;2024-01-27T14:26:32;16.50;;;5.57;;
54937;SDS011;52756;52.826;6.214;2024-01-27T14:28:58;17.75;;;5.63;;
54937;SDS011;52756;52.826;6.214;2024-01-27T14:31:24;13.05;;;5.22;;
54937;SDS011;52756;52.826;6.214;2024-01-27T14:33:50;16.15;;;5.68;;